Latest Weather Observations for Tarcoola

IDS60801

Issued at 9:51 am CDT Friday 23 February 2024 (issued every 10 minutes, with the page automatically refreshed every 10 minutes)

About weather observations | Map of weather stations | Latest weather observations for SA | Other Formats
Station Details ID: 016098 Name: TARCOOLA AERO Lat: -30.71 Lon: 134.58 Height: 123.0 m
Data from the previous 72 hours. | See also: Recent months at Tarcoola
Date/Time
CDT
Temp
°C
App
Temp
°C
Dew
Point
°C
Rel
Hum
%
Delta-T
°C
Wind Press
QNH
hPa
Press
MSL
hPa
Rain since
9am
mm
Dir  Spd
km/h
Gust
km/h
Spd
kts
Gust
kts
23/09:30am 19.3 15.0 10.8 58 4.6 S 24 33 13 18 1019.5 1018.8 0.0
23/09:00am 18.6 14.7 10.7 60 4.3 S 22 33 12 18 1019.3 1018.6 0.0
23/08:30am 17.8 13.5 10.9 64 3.7 S 24 32 13 17 1019.1 1018.4 0.0
23/08:00am 17.3 13.7 10.7 65 3.6 S 20 28 11 15 1018.7 1018.0 0.0
23/07:30am 16.9 13.3 10.5 66 3.4 S 20 32 11 17 1018.3 1017.6 0.0
23/07:00am 16.7 13.4 10.8 68 3.2 S 19 24 10 13 1017.9 1017.2 0.0
23/06:30am 17.0 13.0 10.6 66 3.4 S 22 28 12 15 1017.4 1016.7 0.0
23/06:00am 17.2 13.7 10.8 66 3.4 S 20 30 11 16 1017.1 1016.4 0.0
23/05:30am 17.4 12.8 11.0 66 3.5 S 26 32 14 17 1016.7 1016.0 0.0
23/05:00am 17.6 13.4 11.2 66 3.5 S 24 35 13 19 1016.3 1015.6 0.0
23/04:30am 17.7 14.0 11.5 67 3.4 S 22 33 12 18 1016.1 1015.4 0.0
23/04:00am 18.0 14.3 11.6 66 3.5 S 22 35 12 19 1015.9 1015.2 0.0
23/03:30am 18.2 13.4 11.7 66 3.6 S 28 39 15 21 1015.7 1015.0 0.0
23/03:00am 18.6 15.0 13.0 70 3.2 S 24 32 13 17 1015.7 1015.0 0.0
23/02:30am 18.7 15.1 13.1 70 3.2 S 24 35 13 19 1015.4 1014.7 0.0
23/02:00am 19.0 14.2 13.0 68 3.4 S 30 39 16 21 1015.1 1014.4 0.0
23/01:30am 19.4 14.2 12.9 66 3.7 S 32 46 17 25 1014.9 1014.2 0.0
23/01:00am 19.6 14.9 13.1 66 3.7 SSW 30 41 16 22 1014.5 1013.8 0.0
23/12:30am 20.1 14.9 12.8 63 4.1 S 32 44 17 24 1014.3 1013.6 0.0
23/12:11am 20.5 16.1 13.0 62 4.3 SSW 28 46 15 25 1013.9 1013.2 0.0
23/12:00am 20.5 15.9 13.5 64 4.0 SSW 30 41 16 22 1013.7 1013.0 0.0
 
Date/Time
CDT
Temp
°C
App
Temp
°C
Dew
Point
°C
Rel
Hum
%
Delta-T
°C
Wind Press
QNH
hPa
Press
MSL
hPa
Rain since
9am
mm
Dir  Spd
km/h
Gust
km/h
Spd
kts
Gust
kts
22/11:30pm 21.2 16.4 12.9 59 4.7 SSW 30 43 16 23 1013.4 1012.7 0.0
22/11:00pm 21.9 17.7 12.5 55 5.4 SSW 26 37 14 20 1013.1 1012.4 0.0
22/10:30pm 22.4 16.4 12.1 52 5.8 SSW 35 46 19 25 1012.7 1011.9 0.0
22/10:00pm 23.2 17.1 10.6 45 7.0 SSW 33 52 18 28 1012.3 1011.5 0.0
22/09:42pm 23.8 17.9 11.2 45 7.1 SSW 33 52 18 28 1011.8 1011.1 0.0
22/09:30pm 24.1 18.5 12.1 47 6.9 SSW 33 46 18 25 1011.2 1010.5 0.0
22/09:22pm 24.5 18.6 12.5 47 6.9 SSW 35 54 19 29 1010.9 1010.2 0.0
22/09:00pm 25.4 18.7 13.3 47 7.1 SW 41 57 22 31 1010.2 1009.5 0.0
22/08:34pm 26.9 19.8 14.0 45 7.7 SSW 44 63 24 34 1009.4 1008.7 0.0
22/08:30pm 27.4 21.0 14.4 45 7.8 SSW 41 57 22 31 1009.3 1008.6 0.0
22/08:28pm 27.6 21.6 14.3 44 8.0 SSW 39 57 21 31 1009.2 1008.5 0.0
22/08:00pm 30.2 23.9 14.7 39 9.5 SSW 41 52 22 28 1008.7 1008.0 0.0
22/07:30pm 34.4 28.4 14.3 30 12.4 SSW 39 54 21 29 1007.8 1007.1 0.0
22/07:25pm 34.7 28.4 14.6 30 12.5 SSW 41 57 22 31 1007.5 1006.8 0.0
22/07:00pm 39.8 34.5 12.6 20 16.7 SW 32 57 17 31 1006.3 1005.6 0.0
22/06:57pm 40.8 36.8 11.8 18 17.7 SW 24 50 13 27 1006.4 1005.7 0.0
22/06:30pm 43.3 38.7 3.6 9 21.9 SW 17 28 9 15 1006.1 1005.4 0.0
22/06:00pm 43.7 39.5 3.9 9 22.0 WSW 15 22 8 12 1006.0 1005.3 0.0
22/05:30pm 43.6 39.8 3.8 9 22.0 WSW 13 24 7 13 1006.1 1005.4 0.0
22/05:00pm 43.0 39.5 3.4 9 21.7 W 11 19 6 10 1006.2 1005.5 0.0
22/04:30pm 43.6 40.2 3.8 9 22.0 NW 11 17 6 9 1006.5 1005.8 0.0
22/04:00pm 43.2 39.3 3.5 9 21.8 WSW 13 24 7 13 1006.7 1006.0 0.0
22/03:30pm 42.8 38.4 4.7 10 21.2 WSW 17 26 9 14 1007.2 1006.5 0.0
22/03:00pm 41.5 37.7 3.7 10 20.6 WSW 13 26 7 14 1007.6 1006.9 0.0
22/02:30pm 42.6 38.9 4.6 10 21.1 SW 13 24 7 13 1007.9 1007.2 0.0
22/02:00pm 40.7 37.4 4.5 11 19.9 SW 11 20 6 11 1008.3 1007.6 0.0
22/01:30pm 40.4 36.3 4.3 11 19.8 WNW 15 28 8 15 1008.7 1008.0 0.0
22/01:00pm 39.9 36.5 3.9 11 19.5 NW 11 24 6 13 1009.2 1008.5 0.0
22/12:30pm 39.5 35.3 3.6 11 19.4 W 15 24 8 13 1009.4 1008.7 0.0
22/12:00pm 38.5 35.1 4.1 12 18.6 WNW 11 20 6 11 1009.7 1009.0 0.0
22/11:30am 38.1 34.5 4.9 13 18.1 NW 13 24 7 13 1009.8 1009.1 0.0
22/11:00am 36.9 32.9 5.0 14 17.3 NNW 15 20 8 11 1009.8 1009.1 0.0
22/10:30am 35.8 32.6 5.1 15 16.6 E 11 17 6 9 1009.8 1009.1 0.0
22/10:00am 33.4 30.9 5.0 17 15.1 E 7 11 4 6 1009.9 1009.2 0.0
22/09:30am 31.1 28.1 4.0 18 14.0 E 9 15 5 8 1009.8 1009.1 0.0
22/09:00am 28.2 24.8 3.8 21 12.4 E 11 17 6 9 1009.3 1008.6 0.0
22/08:30am 25.9 23.0 4.4 25 10.9 ESE 9 13 5 7 1009.0 1008.3 0.0
22/08:00am 22.8 20.1 3.9 29 9.3 ESE 7 9 4 5 1009.0 1008.3 0.0
22/07:30am 19.9 17.2 2.7 32 8.1 ESE 6 7 3 4 1008.6 1007.9 0.0
22/07:00am 19.6 16.7 2.5 32 8.0 ESE 7 9 4 5 1008.1 1007.4 0.0
22/06:30am 20.3 17.1 3.1 32 8.2 ESE 9 11 5 6 1007.9 1007.2 0.0
22/06:00am 20.6 17.0 2.9 31 8.4 ESE 11 11 6 6 1007.6 1006.9 0.0
22/05:30am 20.7 17.0 2.5 30 8.6 ESE 11 11 6 6 1007.3 1006.6 0.0
22/05:00am 21.5 17.9 3.2 30 8.8 ESE 11 11 6 6 1007.2 1006.5 0.0
22/04:30am 22.1 18.2 3.3 29 9.1 ESE 13 13 7 7 1007.3 1006.6 0.0
22/04:00am 22.4 19.2 3.0 28 9.3 SE 9 9 5 5 1007.4 1006.7 0.0
22/03:30am 23.5 20.4 3.4 27 9.8 SE 9 9 5 5 1007.6 1006.9 0.0
22/03:00am 24.1 21.3 3.4 26 10.2 SE 7 9 4 5 1007.7 1007.0 0.0
22/02:30am 23.1 19.4 2.6 26 9.8 SE 11 11 6 6 1007.9 1007.2 0.0
22/02:00am 23.4 21.8 2.3 25 10.1 CALM 0 0 0 0 1008.2 1007.5 0.0
22/01:30am 24.6 21.9 2.7 24 10.6 SE 6 7 3 4 1008.5 1007.8 0.0
22/01:00am 25.6 22.8 2.3 22 11.3 SE 6 7 3 4 1008.6 1007.9 0.0
22/12:30am 25.9 23.0 2.6 22 11.4 SE 7 9 4 5 1008.6 1007.9 0.0
22/12:00am 26.4 23.4 2.3 21 11.8 SE 7 9 4 5 1008.6 1007.9 0.0
 
Date/Time
CDT
Temp
°C
App
Temp
°C
Dew
Point
°C
Rel
Hum
%
Delta-T
°C
Wind Press
QNH
hPa
Press
MSL
hPa
Rain since
9am
mm
Dir  Spd
km/h
Gust
km/h
Spd
kts
Gust
kts
21/11:30pm 27.4 24.1 2.5 20 12.3 SE 9 11 5 6 1008.9 1008.2 0.0
21/11:00pm 27.8 24.9 2.8 20 12.4 SE 7 11 4 6 1009.0 1008.3 0.0
21/10:30pm 28.1 24.4 2.3 19 12.8 SE 11 13 6 7 1008.9 1008.2 0.0
21/10:00pm 28.5 25.7 1.9 18 13.1 SSE 6 6 3 3 1008.7 1008.0 0.0
21/09:30pm 29.7 26.3 2.1 17 13.7 S 9 9 5 5 1008.5 1007.8 0.0
21/09:00pm 31.6 28.0 2.7 16 14.7 SSW 11 11 6 6 1008.2 1007.5 0.0
21/08:30pm 33.6 29.9 2.4 14 16.0 SSW 11 13 6 7 1007.9 1007.2 0.0
21/08:00pm 35.6 31.0 1.8 12 17.3 SSW 15 20 8 11 1007.5 1006.8 0.0
21/07:30pm 36.9 31.6 1.6 11 18.2 SSW 19 30 10 16 1007.2 1006.5 0.0
21/07:00pm 37.5 33.4 4.4 13 17.9 S 15 24 8 13 1006.9 1006.2 0.0
21/06:30pm 37.6 33.9 4.5 13 17.9 SSW 13 20 7 11 1006.8 1006.1 0.0
21/06:00pm 37.6 33.3 3.4 12 18.2 SW 15 26 8 14 1006.7 1006.0 0.0
21/05:30pm 37.2 32.9 3.1 12 18.1 SSE 15 28 8 15 1006.8 1006.1 0.0
21/05:00pm 37.4 32.7 3.2 12 18.1 SW 17 32 9 17 1007.1 1006.4 0.0
21/04:30pm 37.3 33.3 3.1 12 18.1 S 13 26 7 14 1007.1 1006.4 0.0
21/04:00pm 37.2 33.6 3.1 12 18.0 SSW 11 19 6 10 1007.4 1006.7 0.0
21/03:30pm 36.2 32.7 3.4 13 17.3 SW 11 28 6 15 1007.8 1007.1 0.0
21/03:00pm 36.0 32.3 4.3 14 17.0 S 13 20 7 11 1008.3 1007.6 0.0
21/02:30pm 34.5 31.5 5.9 17 15.6 WSW 11 20 6 11 1008.8 1008.1 0.0
21/02:00pm 33.1 30.6 6.4 19 14.5 SW 9 17 5 9 1009.1 1008.4 0.0
21/01:30pm 31.8 29.4 6.8 21 13.6 SSE 9 17 5 9 1009.4 1008.7 0.0
21/01:00pm 31.1 28.5 6.2 21 13.4 S 9 17 5 9 1010.0 1009.3 0.0
21/12:30pm 30.1 27.9 7.9 25 12.2 SSE 9 15 5 8 1010.4 1009.7 0.0
21/12:00pm 29.2 27.4 9.3 29 11.1 SSW 9 15 5 8 1010.8 1010.1 0.0
21/11:30am 27.4 26.0 9.7 33 9.9 SSW 7 13 4 7 1011.1 1010.4 0.0
21/11:00am 26.3 25.4 11.2 38 8.6 ESE 7 13 4 7 1011.0 1010.3 0.0
21/10:30am 23.7 23.0 12.0 47 6.7 SSW 7 11 4 6 1011.1 1010.4 0.0
21/10:00am 21.8 21.5 13.4 59 4.9 SW 7 13 4 7 1011.4 1010.7 0.0
21/09:30am 20.4 20.1 14.3 68 3.6 SW 9 15 5 8 1011.6 1010.9 0.0
21/09:00am 18.9 18.7 14.6 76 2.5 SW 9 15 5 8 1011.5 1010.8 0.0
21/08:30am 17.6 17.0 14.5 82 1.8 S 11 13 6 7 1011.7 1011.0 0.0
21/08:00am 16.7 16.4 14.3 86 1.4 SSW 9 13 5 7 1011.6 1010.9 0.0
21/07:30am 15.7 15.2 13.7 88 1.1 SW 9 11 5 6 1011.5 1010.8 0.0
21/07:00am 15.9 15.4 13.7 87 1.2 SW 9 13 5 7 1011.4 1010.7 0.0
21/06:30am 16.3 15.8 13.8 85 1.4 SW 9 13 5 7 1011.1 1010.4 0.0
21/06:00am 16.9 15.7 14.0 83 1.7 SW 13 15 7 8 1010.7 1010.0 0.0
21/05:30am 17.4 16.2 13.9 80 2.0 SW 13 17 7 9 1010.8 1010.1 0.0
21/05:00am 17.8 16.8 13.5 76 2.4 SW 11 15 6 8 1010.9 1010.2 0.0
21/04:30am 18.3 16.6 12.3 68 3.4 SW 13 15 7 8 1011.0 1010.3 0.0
21/04:00am 19.2 17.6 12.7 66 3.7 SSW 13 17 7 9 1010.9 1010.2 0.0
21/03:30am 19.8 17.9 11.8 60 4.5 SW 13 17 7 9 1011.1 1010.4 0.0
21/03:00am 20.4 18.8 11.6 57 4.9 SW 11 15 6 8 1011.3 1010.6 0.0
21/02:30am 20.9 19.6 11.3 54 5.3 SW 9 13 5 7 1011.3 1010.6 0.0
21/02:00am 22.0 19.9 11.1 50 6.1 SW 13 17 7 9 1011.7 1011.0 0.0
21/01:30am 22.7 20.0 10.5 46 6.7 SW 15 17 8 9 1011.8 1011.1 0.0
21/01:00am 23.5 20.8 10.2 43 7.3 SW 15 17 8 9 1012.0 1011.2 0.0
21/12:30am 24.3 21.2 8.7 37 8.4 SW 15 20 8 11 1012.3 1011.5 0.0
21/12:00am 24.6 21.6 5.9 30 9.6 SW 11 15 6 8 1012.1 1011.3 0.0
 
Date/Time
CDT
Temp
°C
App
Temp
°C
Dew
Point
°C
Rel
Hum
%
Delta-T
°C
Wind Press
QNH
hPa
Press
MSL
hPa
Rain since
9am
mm
Dir  Spd
km/h
Gust
km/h
Spd
kts
Gust
kts
20/11:30pm 25.7 22.3 5.8 28 10.3 SW 13 19 7 10 1012.2 1011.4 0.0
20/11:00pm 26.4 22.6 5.9 27 10.7 SW 15 17 8 9 1012.3 1011.5 0.0
20/10:30pm 27.3 23.1 5.6 25 11.3 SSW 17 30 9 16 1012.5 1011.7 0.0
20/10:00pm 28.3 23.4 3.9 21 12.4 SSW 19 24 10 13 1012.3 1011.5 0.0
20/09:30pm 29.5 25.0 4.2 20 13.0 SSW 17 24 9 13 1011.8 1011.1 0.0
20/09:00pm 30.5 25.1 4.3 19 13.6 SSW 22 32 12 17 1011.3 1010.6 0.0
20/08:30pm 31.3 25.8 4.2 18 14.1 SSW 22 30 12 16 1010.8 1010.1 0.0
20/08:00pm 32.5 25.8 3.5 16 15.0 SSW 28 37 15 20 1010.4 1009.7 0.0
20/07:30pm 34.3 27.5 4.9 16 15.7 SW 30 41 16 22 1010.1 1009.4 0.0
20/07:00pm 35.5 26.9 4.9 15 16.5 SSW 39 50 21 27 1009.6 1008.9 0.0
20/06:30pm 37.1 29.8 7.1 16 16.9 SSW 35 48 19 26 1009.2 1008.5 0.0
20/06:09pm 37.9 30.5 6.8 15 17.4 SSW 35 54 19 29 1008.8 1008.1 0.0
20/06:00pm 37.9 31.3 7.7 16 17.2 SSW 32 48 17 26 1008.7 1008.0 0.0
20/05:30pm 38.7 32.0 7.4 15 17.8 SSW 32 46 17 25 1008.6 1007.9 0.0
20/05:10pm 39.0 32.9 6.7 14 18.2 SW 28 48 15 26 1008.6 1007.9 0.0
20/05:00pm 38.8 32.8 5.4 13 18.4 SW 26 41 14 22 1008.7 1008.0 0.0
20/04:30pm 39.4 34.7 5.9 13 18.7 SSW 20 35 11 19 1008.9 1008.2 0.0
20/04:00pm 39.8 34.6 7.3 14 18.5 SW 24 39 13 21 1009.3 1008.6 0.0
20/03:30pm 40.0 33.9 6.4 13 18.9 SW 28 37 15 20 1009.8 1009.1 0.0
20/03:00pm 39.4 34.0 4.7 12 19.0 SSW 22 35 12 19 1010.3 1009.6 0.0
20/02:30pm 39.1 33.6 1.9 10 19.5 SW 20 32 11 17 1010.8 1010.1 0.0
20/02:00pm 37.9 33.1 5.8 14 17.7 SW 20 28 11 15 1011.2 1010.5 0.0
20/01:30pm 36.2 32.0 7.3 17 16.2 SW 19 30 10 16 1011.6 1010.9 0.0
20/01:00pm 35.2 31.5 8.1 19 15.3 SSW 17 26 9 14 1012.2 1011.4 0.0
20/12:30pm 34.9 31.2 9.3 21 14.7 SW 19 32 10 17 1012.8 1012.1 0.0
20/12:00pm 33.5 29.6 9.5 23 13.7 SW 20 30 11 16 1013.3 1012.6 0.0
20/11:30am 32.3 29.8 10.9 27 12.5 SSW 15 24 8 13 1013.6 1012.9 0.0
20/11:00am 31.2 28.5 10.5 28 11.9 SW 15 22 8 12 1013.7 1013.0 0.0
20/10:30am 29.5 27.2 10.6 31 10.8 SW 13 17 7 9 1013.6 1012.9 0.0
20/10:00am 28.4 26.1 11.9 36 9.6 SW 15 20 8 11 1013.6 1012.9 0.0

Other formats

Comma delimited format used in spreadsheet applications
http://www.bom.gov.au/fwo/IDS60801/IDS60801.94655.axf

JavaScript Object Notation format (JSON) in row-major order
http://www.bom.gov.au/fwo/IDS60801/IDS60801.94655.json

Data quality

Most of these data are generated automatically and are frequently updated. Quality checks on data are not normally performed. It is possible for incorrect values to appear. Refer to information at About Latest Weather Observations and please check the disclaimer before using these data.